sensor_id;sensor_type;location;lat;lon;timestamp;P1;durP1;ratioP1;P2;durP2;ratioP2
4359;SDS011;2193;47.980;7.660;2022-11-14T00:02:24;13.60;;;9.43;;
4359;SDS011;2193;47.980;7.660;2022-11-14T00:04:49;14.70;;;9.10;;
4359;SDS011;2193;47.980;7.660;2022-11-14T00:07:14;14.83;;;9.70;;
4359;SDS011;2193;47.980;7.660;2022-11-14T00:09:40;12.17;;;9.07;;
4359;SDS011;2193;47.980;7.660;2022-11-14T00:12:07;15.80;;;8.80;;
4359;SDS011;2193;47.980;7.660;2022-11-14T00:14:33;16.00;;;9.07;;
4359;SDS011;2193;47.980;7.660;2022-11-14T00:16:58;13.80;;;9.60;;
4359;SDS011;2193;47.980;7.660;2022-11-14T00:19:23;13.43;;;9.00;;
4359;SDS011;2193;47.980;7.660;2022-11-14T00:21:48;14.00;;;8.90;;
4359;SDS011;2193;47.980;7.660;2022-11-14T00:24:16;13.13;;;9.00;;
4359;SDS011;2193;47.980;7.660;2022-11-14T00:26:41;13.70;;;8.97;;
4359;SDS011;2193;47.980;7.660;2022-11-14T00:29:06;12.80;;;8.80;;
4359;SDS011;2193;47.980;7.660;2022-11-14T00:31:31;13.73;;;9.03;;
4359;SDS011;2193;47.980;7.660;2022-11-14T00:33:57;12.27;;;8.57;;
4359;SDS011;2193;47.980;7.660;2022-11-14T00:36:22;10.67;;;7.60;;
4359;SDS011;2193;47.980;7.660;2022-11-14T00:38:50;13.47;;;8.30;;
4359;SDS011;2193;47.980;7.660;2022-11-14T00:41:16;11.95;;;8.15;;
4359;SDS011;2193;47.980;7.660;2022-11-14T00:43:41;9.27;;;6.80;;
4359;SDS011;2193;47.980;7.660;2022-11-14T00:46:06;11.77;;;8.10;;
4359;SDS011;2193;47.980;7.660;2022-11-14T00:48:31;13.77;;;8.37;;
4359;SDS011;2193;47.980;7.660;2022-11-14T00:50:57;12.23;;;8.27;;
4359;SDS011;2193;47.980;7.660;2022-11-14T00:53:22;9.90;;;7.00;;
4359;SDS011;2193;47.980;7.660;2022-11-14T00:55:47;11.83;;;8.57;;
4359;SDS011;2193;47.980;7.660;2022-11-14T00:58:12;10.23;;;7.87;;
4359;SDS011;2193;47.980;7.660;2022-11-14T01:00:37;13.60;;;8.20;;
4359;SDS011;2193;47.980;7.660;2022-11-14T01:03:03;12.27;;;8.00;;
4359;SDS011;2193;47.980;7.660;2022-11-14T01:05:28;13.87;;;8.07;;
4359;SDS011;2193;47.980;7.660;2022-11-14T01:07:53;12.93;;;7.40;;
4359;SDS011;2193;47.980;7.660;2022-11-14T01:10:18;14.77;;;8.77;;
4359;SDS011;2193;47.980;7.660;2022-11-14T01:12:44;13.27;;;8.90;;
4359;SDS011;2193;47.980;7.660;2022-11-14T01:15:10;13.23;;;8.90;;
4359;SDS011;2193;47.980;7.660;2022-11-14T01:17:35;16.40;;;8.50;;
4359;SDS011;2193;47.980;7.660;2022-11-14T01:20:00;13.93;;;9.00;;
4359;SDS011;2193;47.980;7.660;2022-11-14T01:22:25;13.87;;;8.33;;
4359;SDS011;2193;47.980;7.660;2022-11-14T01:24:51;16.20;;;9.20;;
4359;SDS011;2193;47.980;7.660;2022-11-14T01:27:16;16.30;;;9.77;;
4359;SDS011;2193;47.980;7.660;2022-11-14T01:29:41;14.50;;;9.17;;
4359;SDS011;2193;47.980;7.660;2022-11-14T01:32:06;16.57;;;9.57;;
4359;SDS011;2193;47.980;7.660;2022-11-14T01:34:31;17.07;;;10.03;;
4359;SDS011;2193;47.980;7.660;2022-11-14T01:36:57;16.33;;;10.10;;
4359;SDS011;2193;47.980;7.660;2022-11-14T01:39:22;16.17;;;9.53;;
4359;SDS011;2193;47.980;7.660;2022-11-14T01:41:47;16.23;;;10.60;;
4359;SDS011;2193;47.980;7.660;2022-11-14T01:44:36;12.70;;;8.97;;
4359;SDS011;2193;47.980;7.660;2022-11-14T01:46:57;16.20;;;9.88;;
4359;SDS011;2193;47.980;7.660;2022-11-14T01:49:24;17.33;;;10.50;;
4359;SDS011;2193;47.980;7.660;2022-11-14T01:51:54;18.10;;;10.57;;
4359;SDS011;2193;47.980;7.660;2022-11-14T01:54:23;16.83;;;11.13;;
4359;SDS011;2193;47.980;7.660;2022-11-14T01:56:51;19.42;;;11.07;;
4359;SDS011;2193;47.980;7.660;2022-11-14T01:59:19;20.02;;;12.05;;
4359;SDS011;2193;47.980;7.660;2022-11-14T02:01:46;23.80;;;12.98;;
4359;SDS011;2193;47.980;7.660;2022-11-14T02:04:12;24.65;;;13.55;;
4359;SDS011;2193;47.980;7.660;2022-11-14T02:06:39;26.35;;;12.85;;
4359;SDS011;2193;47.980;7.660;2022-11-14T02:09:06;28.43;;;13.40;;
4359;SDS011;2193;47.980;7.660;2022-11-14T02:11:33;23.17;;;13.75;;
4359;SDS011;2193;47.980;7.660;2022-11-14T02:14:00;25.40;;;12.95;;
4359;SDS011;2193;47.980;7.660;2022-11-14T02:16:26;24.10;;;13.30;;
4359;SDS011;2193;47.980;7.660;2022-11-14T02:18:51;25.87;;;13.87;;
4359;SDS011;2193;47.980;7.660;2022-11-14T02:21:16;23.90;;;13.37;;
4359;SDS011;2193;47.980;7.660;2022-11-14T02:23:42;22.40;;;11.80;;
4359;SDS011;2193;47.980;7.660;2022-11-14T02:26:07;19.27;;;11.30;;
4359;SDS011;2193;47.980;7.660;2022-11-14T02:28:32;26.70;;;10.87;;
4359;SDS011;2193;47.980;7.660;2022-11-14T02:30:57;27.27;;;11.27;;
4359;SDS011;2193;47.980;7.660;2022-11-14T02:33:22;18.40;;;10.70;;
4359;SDS011;2193;47.980;7.660;2022-11-14T02:35:48;20.07;;;11.63;;
4359;SDS011;2193;47.980;7.660;2022-11-14T02:38:13;19.20;;;11.00;;
4359;SDS011;2193;47.980;7.660;2022-11-14T02:40:38;26.67;;;12.53;;
4359;SDS011;2193;47.980;7.660;2022-11-14T02:43:03;26.30;;;12.00;;
4359;SDS011;2193;47.980;7.660;2022-11-14T02:45:28;21.17;;;11.77;;
4359;SDS011;2193;47.980;7.660;2022-11-14T02:47:54;20.33;;;11.47;;
4359;SDS011;2193;47.980;7.660;2022-11-14T02:50:19;17.10;;;11.10;;
4359;SDS011;2193;47.980;7.660;2022-11-14T02:52:44;24.90;;;11.67;;
4359;SDS011;2193;47.980;7.660;2022-11-14T02:55:09;22.37;;;11.77;;
4359;SDS011;2193;47.980;7.660;2022-11-14T02:57:35;35.57;;;13.13;;
4359;SDS011;2193;47.980;7.660;2022-11-14T03:00:00;25.87;;;13.00;;
4359;SDS011;2193;47.980;7.660;2022-11-14T03:02:25;22.57;;;12.00;;
4359;SDS011;2193;47.980;7.660;2022-11-14T03:04:50;40.73;;;12.40;;
4359;SDS011;2193;47.980;7.660;2022-11-14T03:07:16;54.83;;;13.90;;
4359;SDS011;2193;47.980;7.660;2022-11-14T03:09:41;92.93;;;14.20;;
4359;SDS011;2193;47.980;7.660;2022-11-14T03:12:06;42.30;;;13.47;;
4359;SDS011;2193;47.980;7.660;2022-11-14T03:14:31;92.77;;;13.97;;
4359;SDS011;2193;47.980;7.660;2022-11-14T03:16:57;44.47;;;11.50;;
4359;SDS011;2193;47.980;7.660;2022-11-14T03:19:22;40.07;;;10.13;;
4359;SDS011;2193;47.980;7.660;2022-11-14T03:21:47;71.07;;;11.00;;
4359;SDS011;2193;47.980;7.660;2022-11-14T03:24:12;71.70;;;10.77;;
4359;SDS011;2193;47.980;7.660;2022-11-14T03:26:37;30.33;;;9.10;;
4359;SDS011;2193;47.980;7.660;2022-11-14T03:29:03;28.13;;;9.33;;
4359;SDS011;2193;47.980;7.660;2022-11-14T03:31:28;84.77;;;11.53;;
4359;SDS011;2193;47.980;7.660;2022-11-14T03:33:53;23.20;;;10.33;;
4359;SDS011;2193;47.980;7.660;2022-11-14T03:36:19;43.77;;;11.33;;
4359;SDS011;2193;47.980;7.660;2022-11-14T03:38:44;75.67;;;12.27;;
4359;SDS011;2193;47.980;7.660;2022-11-14T03:41:09;33.20;;;10.60;;
4359;SDS011;2193;47.980;7.660;2022-11-14T03:43:34;30.20;;;9.03;;
4359;SDS011;2193;47.980;7.660;2022-11-14T03:46:00;32.60;;;10.53;;
4359;SDS011;2193;47.980;7.660;2022-11-14T03:48:26;29.33;;;10.02;;
4359;SDS011;2193;47.980;7.660;2022-11-14T03:50:51;14.10;;;8.73;;
4359;SDS011;2193;47.980;7.660;2022-11-14T03:53:17;25.93;;;8.93;;
4359;SDS011;2193;47.980;7.660;2022-11-14T03:55:42;12.90;;;8.60;;
4359;SDS011;2193;47.980;7.660;2022-11-14T03:58:07;14.97;;;9.27;;
4359;SDS011;2193;47.980;7.660;2022-11-14T04:00:33;17.47;;;9.60;;
4359;SDS011;2193;47.980;7.660;2022-11-14T04:02:58;17.43;;;9.67;;
4359;SDS011;2193;47.980;7.660;2022-11-14T04:05:23;19.53;;;10.33;;
4359;SDS011;2193;47.980;7.660;2022-11-14T04:07:48;22.70;;;11.00;;
4359;SDS011;2193;47.980;7.660;2022-11-14T04:10:14;56.87;;;11.40;;
4359;SDS011;2193;47.980;7.660;2022-11-14T04:12:39;17.80;;;10.20;;
4359;SDS011;2193;47.980;7.660;2022-11-14T04:15:05;42.13;;;11.07;;
4359;SDS011;2193;47.980;7.660;2022-11-14T04:17:30;38.50;;;10.37;;
4359;SDS011;2193;47.980;7.660;2022-11-14T04:19:55;59.33;;;12.97;;
4359;SDS011;2193;47.980;7.660;2022-11-14T04:22:20;86.87;;;14.03;;
4359;SDS011;2193;47.980;7.660;2022-11-14T04:24:45;220.30;;;18.23;;
4359;SDS011;2193;47.980;7.660;2022-11-14T04:27:11;69.60;;;11.90;;
4359;SDS011;2193;47.980;7.660;2022-11-14T04:29:36;29.57;;;10.83;;
4359;SDS011;2193;47.980;7.660;2022-11-14T04:32:01;82.87;;;13.43;;
4359;SDS011;2193;47.980;7.660;2022-11-14T04:34:26;20.60;;;9.77;;
4359;SDS011;2193;47.980;7.660;2022-11-14T04:36:51;14.83;;;10.13;;
4359;SDS011;2193;47.980;7.660;2022-11-14T04:39:18;15.52;;;10.00;;
4359;SDS011;2193;47.980;7.660;2022-11-14T04:41:43;23.63;;;10.10;;
4359;SDS011;2193;47.980;7.660;2022-11-14T04:44:08;22.83;;;9.93;;
4359;SDS011;2193;47.980;7.660;2022-11-14T04:46:34;49.80;;;10.03;;
4359;SDS011;2193;47.980;7.660;2022-11-14T04:48:59;13.80;;;8.20;;
4359;SDS011;2193;47.980;7.660;2022-11-14T04:51:24;11.87;;;8.27;;
4359;SDS011;2193;47.980;7.660;2022-11-14T04:53:49;14.33;;;9.00;;
4359;SDS011;2193;47.980;7.660;2022-11-14T04:56:14;13.70;;;9.20;;
4359;SDS011;2193;47.980;7.660;2022-11-14T04:58:40;15.77;;;9.33;;
4359;SDS011;2193;47.980;7.660;2022-11-14T05:01:08;13.70;;;8.90;;
4359;SDS011;2193;47.980;7.660;2022-11-14T05:03:34;13.45;;;8.05;;
4359;SDS011;2193;47.980;7.660;2022-11-14T05:05:59;18.97;;;9.20;;
4359;SDS011;2193;47.980;7.660;2022-11-14T05:08:25;11.80;;;8.37;;
4359;SDS011;2193;47.980;7.660;2022-11-14T05:10:50;16.57;;;9.70;;
4359;SDS011;2193;47.980;7.660;2022-11-14T05:13:15;15.57;;;10.50;;
4359;SDS011;2193;47.980;7.660;2022-11-14T05:15:40;14.40;;;9.57;;
4359;SDS011;2193;47.980;7.660;2022-11-14T05:18:06;14.67;;;9.63;;
4359;SDS011;2193;47.980;7.660;2022-11-14T05:20:31;12.63;;;8.53;;
4359;SDS011;2193;47.980;7.660;2022-11-14T05:22:56;20.73;;;11.00;;
4359;SDS011;2193;47.980;7.660;2022-11-14T05:25:22;18.40;;;10.40;;
4359;SDS011;2193;47.980;7.660;2022-11-14T05:27:47;15.27;;;10.10;;
4359;SDS011;2193;47.980;7.660;2022-11-14T05:30:13;13.53;;;9.00;;
4359;SDS011;2193;47.980;7.660;2022-11-14T05:32:38;14.50;;;10.23;;
4359;SDS011;2193;47.980;7.660;2022-11-14T05:35:04;15.03;;;9.97;;
4359;SDS011;2193;47.980;7.660;2022-11-14T05:37:29;16.87;;;10.73;;
4359;SDS011;2193;47.980;7.660;2022-11-14T05:39:55;15.60;;;9.30;;
4359;SDS011;2193;47.980;7.660;2022-11-14T05:42:20;16.07;;;9.97;;
4359;SDS011;2193;47.980;7.660;2022-11-14T05:44:45;19.43;;;10.90;;
4359;SDS011;2193;47.980;7.660;2022-11-14T05:47:10;15.47;;;10.60;;
4359;SDS011;2193;47.980;7.660;2022-11-14T05:49:35;16.63;;;10.73;;
4359;SDS011;2193;47.980;7.660;2022-11-14T05:52:00;18.57;;;11.70;;
4359;SDS011;2193;47.980;7.660;2022-11-14T05:54:26;18.77;;;11.50;;
4359;SDS011;2193;47.980;7.660;2022-11-14T05:56:51;13.10;;;8.80;;
4359;SDS011;2193;47.980;7.660;2022-11-14T05:59:16;10.53;;;7.80;;
4359;SDS011;2193;47.980;7.660;2022-11-14T06:01:41;8.57;;;6.47;;
4359;SDS011;2193;47.980;7.660;2022-11-14T06:04:06;9.90;;;7.13;;
4359;SDS011;2193;47.980;7.660;2022-11-14T06:06:32;9.90;;;7.23;;
4359;SDS011;2193;47.980;7.660;2022-11-14T06:08:57;9.10;;;7.00;;
4359;SDS011;2193;47.980;7.660;2022-11-14T06:11:22;7.77;;;6.57;;
4359;SDS011;2193;47.980;7.660;2022-11-14T06:13:47;13.50;;;7.23;;
4359;SDS011;2193;47.980;7.660;2022-11-14T06:16:14;9.70;;;6.87;;
4359;SDS011;2193;47.980;7.660;2022-11-14T06:18:39;8.32;;;6.53;;
4359;SDS011;2193;47.980;7.660;2022-11-14T06:21:05;8.20;;;6.80;;
4359;SDS011;2193;47.980;7.660;2022-11-14T06:23:31;8.55;;;6.53;;
4359;SDS011;2193;47.980;7.660;2022-11-14T06:26:00;6.73;;;5.87;;
4359;SDS011;2193;47.980;7.660;2022-11-14T06:28:25;7.93;;;6.30;;
4359;SDS011;2193;47.980;7.660;2022-11-14T06:30:50;9.27;;;6.67;;
4359;SDS011;2193;47.980;7.660;2022-11-14T06:33:15;11.97;;;6.87;;
4359;SDS011;2193;47.980;7.660;2022-11-14T06:35:41;8.50;;;6.83;;
4359;SDS011;2193;47.980;7.660;2022-11-14T06:38:06;8.03;;;6.20;;
4359;SDS011;2193;47.980;7.660;2022-11-14T06:40:31;13.30;;;6.37;;
4359;SDS011;2193;47.980;7.660;2022-11-14T06:42:56;9.20;;;6.80;;
4359;SDS011;2193;47.980;7.660;2022-11-14T06:45:21;9.57;;;6.33;;
4359;SDS011;2193;47.980;7.660;2022-11-14T06:47:47;7.90;;;6.50;;
4359;SDS011;2193;47.980;7.660;2022-11-14T06:50:12;8.90;;;7.13;;
4359;SDS011;2193;47.980;7.660;2022-11-14T06:52:37;9.93;;;7.40;;
4359;SDS011;2193;47.980;7.660;2022-11-14T06:55:02;10.50;;;7.60;;
4359;SDS011;2193;47.980;7.660;2022-11-14T06:57:28;9.07;;;6.80;;
4359;SDS011;2193;47.980;7.660;2022-11-14T06:59:53;10.90;;;7.37;;
4359;SDS011;2193;47.980;7.660;2022-11-14T07:02:18;16.43;;;8.17;;
4359;SDS011;2193;47.980;7.660;2022-11-14T07:04:43;10.60;;;7.70;;
4359;SDS011;2193;47.980;7.660;2022-11-14T07:07:09;10.80;;;7.57;;
4359;SDS011;2193;47.980;7.660;2022-11-14T07:09:34;10.20;;;7.60;;
4359;SDS011;2193;47.980;7.660;2022-11-14T07:11:59;11.30;;;7.77;;
4359;SDS011;2193;47.980;7.660;2022-11-14T07:14:24;9.53;;;7.57;;
4359;SDS011;2193;47.980;7.660;2022-11-14T07:16:49;9.43;;;7.20;;
4359;SDS011;2193;47.980;7.660;2022-11-14T07:19:15;9.57;;;6.90;;
4359;SDS011;2193;47.980;7.660;2022-11-14T07:21:40;9.77;;;7.03;;
4359;SDS011;2193;47.980;7.660;2022-11-14T07:24:05;8.30;;;6.57;;
4359;SDS011;2193;47.980;7.660;2022-11-14T07:26:30;8.57;;;6.50;;
4359;SDS011;2193;47.980;7.660;2022-11-14T07:28:55;12.00;;;6.83;;
4359;SDS011;2193;47.980;7.660;2022-11-14T07:31:21;10.37;;;7.67;;
4359;SDS011;2193;47.980;7.660;2022-11-14T07:33:46;9.80;;;7.50;;
4359;SDS011;2193;47.980;7.660;2022-11-14T07:36:12;11.40;;;8.37;;
4359;SDS011;2193;47.980;7.660;2022-11-14T07:38:37;10.73;;;7.60;;
4359;SDS011;2193;47.980;7.660;2022-11-14T07:41:04;10.13;;;6.60;;
4359;SDS011;2193;47.980;7.660;2022-11-14T07:43:29;10.15;;;7.97;;
4359;SDS011;2193;47.980;7.660;2022-11-14T07:46:04;11.80;;;7.37;;
4359;SDS011;2193;47.980;7.660;2022-11-14T07:48:30;42.10;;;10.30;;
4359;SDS011;2193;47.980;7.660;2022-11-14T07:50:59;13.10;;;7.87;;
4359;SDS011;2193;47.980;7.660;2022-11-14T07:53:24;37.58;;;10.98;;
4359;SDS011;2193;47.980;7.660;2022-11-14T07:55:50;119.83;;;17.70;;
4359;SDS011;2193;47.980;7.660;2022-11-14T07:58:15;50.27;;;11.20;;
4359;SDS011;2193;47.980;7.660;2022-11-14T08:00:40;29.10;;;8.57;;
4359;SDS011;2193;47.980;7.660;2022-11-14T08:03:06;16.10;;;8.20;;
4359;SDS011;2193;47.980;7.660;2022-11-14T08:05:32;13.50;;;7.55;;
4359;SDS011;2193;47.980;7.660;2022-11-14T08:07:57;11.50;;;8.07;;
4359;SDS011;2193;47.980;7.660;2022-11-14T08:10:22;12.23;;;8.30;;
4359;SDS011;2193;47.980;7.660;2022-11-14T08:12:55;10.47;;;7.63;;
4359;SDS011;2193;47.980;7.660;2022-11-14T08:15:21;10.23;;;7.70;;
4359;SDS011;2193;47.980;7.660;2022-11-14T08:17:46;9.13;;;7.27;;
4359;SDS011;2193;47.980;7.660;2022-11-14T08:20:11;13.47;;;9.87;;
4359;SDS011;2193;47.980;7.660;2022-11-14T08:22:36;13.00;;;8.43;;
4359;SDS011;2193;47.980;7.660;2022-11-14T08:25:01;11.20;;;6.80;;
4359;SDS011;2193;47.980;7.660;2022-11-14T08:27:27;10.20;;;7.20;;
4359;SDS011;2193;47.980;7.660;2022-11-14T08:29:52;12.63;;;8.70;;
4359;SDS011;2193;47.980;7.660;2022-11-14T08:32:17;10.80;;;7.97;;
4359;SDS011;2193;47.980;7.660;2022-11-14T08:34:43;14.83;;;8.40;;
4359;SDS011;2193;47.980;7.660;2022-11-14T08:37:08;32.23;;;9.60;;
4359;SDS011;2193;47.980;7.660;2022-11-14T08:39:33;17.27;;;8.60;;
4359;SDS011;2193;47.980;7.660;2022-11-14T08:41:59;20.53;;;9.10;;
4359;SDS011;2193;47.980;7.660;2022-11-14T08:44:24;14.03;;;8.57;;
4359;SDS011;2193;47.980;7.660;2022-11-14T08:46:49;61.63;;;12.10;;
4359;SDS011;2193;47.980;7.660;2022-11-14T08:49:15;12.80;;;8.17;;
4359;SDS011;2193;47.980;7.660;2022-11-14T08:51:40;11.77;;;8.30;;
4359;SDS011;2193;47.980;7.660;2022-11-14T08:54:05;10.67;;;8.17;;
4359;SDS011;2193;47.980;7.660;2022-11-14T08:56:31;12.67;;;9.40;;
4359;SDS011;2193;47.980;7.660;2022-11-14T08:58:56;13.80;;;9.80;;
4359;SDS011;2193;47.980;7.660;2022-11-14T09:01:22;14.40;;;8.93;;
4359;SDS011;2193;47.980;7.660;2022-11-14T09:03:47;12.90;;;9.37;;
4359;SDS011;2193;47.980;7.660;2022-11-14T09:06:12;16.63;;;9.40;;
4359;SDS011;2193;47.980;7.660;2022-11-14T09:08:37;14.00;;;10.20;;
4359;SDS011;2193;47.980;7.660;2022-11-14T09:11:03;14.70;;;10.57;;
4359;SDS011;2193;47.980;7.660;2022-11-14T09:13:31;20.42;;;10.63;;
4359;SDS011;2193;47.980;7.660;2022-11-14T09:15:56;14.68;;;9.85;;
4359;SDS011;2193;47.980;7.660;2022-11-14T09:18:22;14.13;;;9.80;;
4359;SDS011;2193;47.980;7.660;2022-11-14T09:20:47;17.07;;;8.93;;
4359;SDS011;2193;47.980;7.660;2022-11-14T09:23:12;14.67;;;9.37;;
4359;SDS011;2193;47.980;7.660;2022-11-14T09:25:37;14.40;;;9.47;;
4359;SDS011;2193;47.980;7.660;2022-11-14T09:28:06;12.13;;;8.77;;
4359;SDS011;2193;47.980;7.660;2022-11-14T09:30:32;16.67;;;9.35;;
4359;SDS011;2193;47.980;7.660;2022-11-14T09:32:58;15.27;;;9.82;;
4359;SDS011;2193;47.980;7.660;2022-11-14T09:35:23;17.37;;;9.50;;
4359;SDS011;2193;47.980;7.660;2022-11-14T09:37:48;14.50;;;9.50;;
4359;SDS011;2193;47.980;7.660;2022-11-14T09:40:13;14.23;;;8.60;;
4359;SDS011;2193;47.980;7.660;2022-11-14T09:42:58;12.60;;;9.70;;
4359;SDS011;2193;47.980;7.660;2022-11-14T09:45:26;13.73;;;8.75;;
4359;SDS011;2193;47.980;7.660;2022-11-14T09:47:52;16.60;;;10.50;;
4359;SDS011;2193;47.980;7.660;2022-11-14T09:50:21;15.35;;;10.23;;
4359;SDS011;2193;47.980;7.660;2022-11-14T09:52:51;12.23;;;8.80;;
4359;SDS011;2193;47.980;7.660;2022-11-14T09:55:36;14.95;;;9.50;;
4359;SDS011;2193;47.980;7.660;2022-11-14T09:58:01;15.88;;;10.45;;
4359;SDS011;2193;47.980;7.660;2022-11-14T10:00:28;26.40;;;12.00;;
4359;SDS011;2193;47.980;7.660;2022-11-14T10:03:43;15.90;;;10.00;;
4359;SDS011;2193;47.980;7.660;2022-11-14T10:20:53;16.45;;;10.30;;
4359;SDS011;2193;47.980;7.660;2022-11-14T10:31:56;14.18;;;10.05;;
4359;SDS011;2193;47.980;7.660;2022-11-14T10:34:38;14.60;;;10.68;;
4359;SDS011;2193;47.980;7.660;2022-11-14T10:39:41;19.15;;;11.00;;
4359;SDS011;2193;47.980;7.660;2022-11-14T10:42:13;16.70;;;10.00;;
4359;SDS011;2193;47.980;7.660;2022-11-14T10:44:53;14.73;;;9.98;;
4359;SDS011;2193;47.980;7.660;2022-11-14T10:47:20;14.00;;;10.80;;
4359;SDS011;2193;47.980;7.660;2022-11-14T10:49:48;18.63;;;11.73;;
4359;SDS011;2193;47.980;7.660;2022-11-14T10:52:17;19.07;;;12.03;;
4359;SDS011;2193;47.980;7.660;2022-11-14T10:54:51;15.90;;;10.10;;
4359;SDS011;2193;47.980;7.660;2022-11-14T10:57:20;18.90;;;10.60;;
4359;SDS011;2193;47.980;7.660;2022-11-14T10:59:46;14.23;;;9.47;;
4359;SDS011;2193;47.980;7.660;2022-11-14T11:02:12;16.73;;;9.80;;
4359;SDS011;2193;47.980;7.660;2022-11-14T11:04:38;13.23;;;9.53;;
4359;SDS011;2193;47.980;7.660;2022-11-14T11:09:32;21.75;;;12.68;;
4359;SDS011;2193;47.980;7.660;2022-11-14T11:12:18;19.92;;;13.15;;
4359;SDS011;2193;47.980;7.660;2022-11-14T11:14:44;20.57;;;12.10;;
4359;SDS011;2193;47.980;7.660;2022-11-14T11:19:34;16.80;;;12.10;;
4359;SDS011;2193;47.980;7.660;2022-11-14T11:22:00;17.90;;;12.43;;
4359;SDS011;2193;47.980;7.660;2022-11-14T11:24:31;18.77;;;12.97;;
4359;SDS011;2193;47.980;7.660;2022-11-14T11:27:17;20.20;;;11.03;;
4359;SDS011;2193;47.980;7.660;2022-11-14T11:29:49;17.13;;;11.13;;
4359;SDS011;2193;47.980;7.660;2022-11-14T11:32:25;15.07;;;9.80;;
4359;SDS011;2193;47.980;7.660;2022-11-14T11:34:50;15.60;;;10.57;;
4359;SDS011;2193;47.980;7.660;2022-11-14T11:37:20;14.60;;;10.20;;
4359;SDS011;2193;47.980;7.660;2022-11-14T11:39:49;15.73;;;10.07;;
4359;SDS011;2193;47.980;7.660;2022-11-14T11:42:22;16.90;;;9.80;;
4359;SDS011;2193;47.980;7.660;2022-11-14T11:44:49;15.73;;;9.70;;
4359;SDS011;2193;47.980;7.660;2022-11-14T11:47:17;12.73;;;8.00;;
4359;SDS011;2193;47.980;7.660;2022-11-14T11:49:49;7.27;;;5.53;;
4359;SDS011;2193;47.980;7.660;2022-11-14T11:52:17;7.97;;;5.40;;
4359;SDS011;2193;47.980;7.660;2022-11-14T11:54:55;11.77;;;5.53;;
4359;SDS011;2193;47.980;7.660;2022-11-14T11:57:23;9.60;;;4.83;;
4359;SDS011;2193;47.980;7.660;2022-11-14T11:59:53;11.70;;;4.63;;
4359;SDS011;2193;47.980;7.660;2022-11-14T12:02:23;6.40;;;4.33;;
4359;SDS011;2193;47.980;7.660;2022-11-14T12:04:49;6.20;;;4.70;;
4359;SDS011;2193;47.980;7.660;2022-11-14T12:07:16;21.63;;;4.83;;
4359;SDS011;2193;47.980;7.660;2022-11-14T12:09:42;6.40;;;4.33;;
4359;SDS011;2193;47.980;7.660;2022-11-14T12:12:15;5.90;;;3.60;;
4359;SDS011;2193;47.980;7.660;2022-11-14T12:25:33;5.80;;;4.07;;
4359;SDS011;2193;47.980;7.660;2022-11-14T12:30:46;6.10;;;3.80;;
4359;SDS011;2193;47.980;7.660;2022-11-14T12:33:19;6.43;;;3.50;;
4359;SDS011;2193;47.980;7.660;2022-11-14T12:35:55;5.70;;;3.70;;
4359;SDS011;2193;47.980;7.660;2022-11-14T12:38:21;5.50;;;3.40;;
4359;SDS011;2193;47.980;7.660;2022-11-14T12:40:48;5.50;;;3.30;;
4359;SDS011;2193;47.980;7.660;2022-11-14T12:43:31;7.33;;;4.00;;
4359;SDS011;2193;47.980;7.660;2022-11-14T12:45:58;8.20;;;3.33;;
4359;SDS011;2193;47.980;7.660;2022-11-14T12:50:53;4.90;;;3.50;;
4359;SDS011;2193;47.980;7.660;2022-11-14T13:01:33;8.20;;;3.60;;
4359;SDS011;2193;47.980;7.660;2022-11-14T13:11:38;8.30;;;3.30;;
4359;SDS011;2193;47.980;7.660;2022-11-14T13:14:23;4.73;;;3.60;;
4359;SDS011;2193;47.980;7.660;2022-11-14T13:19:54;3.80;;;2.70;;
4359;SDS011;2193;47.980;7.660;2022-11-14T13:22:39;8.10;;;4.33;;
4359;SDS011;2193;47.980;7.660;2022-11-14T13:27:31;4.53;;;3.13;;
4359;SDS011;2193;47.980;7.660;2022-11-14T13:29:56;5.70;;;3.33;;
4359;SDS011;2193;47.980;7.660;2022-11-14T13:32:51;3.90;;;3.50;;
4359;SDS011;2193;47.980;7.660;2022-11-14T13:37:57;10.70;;;5.33;;
4359;SDS011;2193;47.980;7.660;2022-11-14T13:40:32;39.57;;;16.77;;
4359;SDS011;2193;47.980;7.660;2022-11-14T13:43:04;17.70;;;10.30;;
4359;SDS011;2193;47.980;7.660;2022-11-14T13:50:55;7.10;;;5.97;;
4359;SDS011;2193;47.980;7.660;2022-11-14T13:53:22;8.10;;;4.83;;
4359;SDS011;2193;47.980;7.660;2022-11-14T14:06:32;9.33;;;3.83;;
4359;SDS011;2193;47.980;7.660;2022-11-14T14:11:47;10.70;;;4.20;;
4359;SDS011;2193;47.980;7.660;2022-11-14T14:20:08;7.90;;;4.40;;
4359;SDS011;2193;47.980;7.660;2022-11-14T14:30:19;28.53;;;18.13;;
4359;SDS011;2193;47.980;7.660;2022-11-14T14:35:29;7.50;;;6.30;;
4359;SDS011;2193;47.980;7.660;2022-11-14T14:37:55;7.70;;;5.30;;
4359;SDS011;2193;47.980;7.660;2022-11-14T14:42:52;12.30;;;8.37;;
4359;SDS011;2193;47.980;7.660;2022-11-14T14:45:18;16.97;;;11.30;;
4359;SDS011;2193;47.980;7.660;2022-11-14T14:47:44;12.13;;;9.00;;
4359;SDS011;2193;47.980;7.660;2022-11-14T14:52:45;16.03;;;10.10;;
4359;SDS011;2193;47.980;7.660;2022-11-14T14:55:21;22.00;;;14.40;;
4359;SDS011;2193;47.980;7.660;2022-11-14T14:57:47;23.50;;;15.37;;
4359;SDS011;2193;47.980;7.660;2022-11-14T15:00:22;21.13;;;14.07;;
4359;SDS011;2193;47.980;7.660;2022-11-14T15:02:52;23.10;;;12.73;;
4359;SDS011;2193;47.980;7.660;2022-11-14T15:05:22;22.03;;;13.57;;
4359;SDS011;2193;47.980;7.660;2022-11-14T15:07:47;32.77;;;18.57;;
4359;SDS011;2193;47.980;7.660;2022-11-14T15:10:20;19.40;;;9.37;;
4359;SDS011;2193;47.980;7.660;2022-11-14T15:12:46;16.10;;;10.60;;
4359;SDS011;2193;47.980;7.660;2022-11-14T15:15:12;16.60;;;10.53;;
4359;SDS011;2193;47.980;7.660;2022-11-14T15:17:39;15.63;;;10.90;;
4359;SDS011;2193;47.980;7.660;2022-11-14T15:20:16;12.93;;;9.07;;
4359;SDS011;2193;47.980;7.660;2022-11-14T15:23:00;9.20;;;5.57;;
4359;SDS011;2193;47.980;7.660;2022-11-14T15:25:25;10.50;;;6.13;;
4359;SDS011;2193;47.980;7.660;2022-11-14T15:27:51;19.07;;;16.03;;
4359;SDS011;2193;47.980;7.660;2022-11-14T15:30:21;14.20;;;9.03;;
4359;SDS011;2193;47.980;7.660;2022-11-14T15:32:48;11.20;;;6.80;;
4359;SDS011;2193;47.980;7.660;2022-11-14T15:37:57;12.37;;;8.10;;
4359;SDS011;2193;47.980;7.660;2022-11-14T15:40:23;11.87;;;7.87;;
4359;SDS011;2193;47.980;7.660;2022-11-14T15:42:48;9.70;;;7.30;;
4359;SDS011;2193;47.980;7.660;2022-11-14T15:45:23;15.40;;;8.40;;
4359;SDS011;2193;47.980;7.660;2022-11-14T15:47:58;14.27;;;8.43;;
4359;SDS011;2193;47.980;7.660;2022-11-14T15:50:32;11.50;;;8.20;;
4359;SDS011;2193;47.980;7.660;2022-11-14T15:53:01;12.90;;;9.13;;
4359;SDS011;2193;47.980;7.660;2022-11-14T15:55:27;15.60;;;9.07;;
4359;SDS011;2193;47.980;7.660;2022-11-14T15:57:53;19.73;;;9.17;;
4359;SDS011;2193;47.980;7.660;2022-11-14T16:00:18;14.07;;;10.67;;
4359;SDS011;2193;47.980;7.660;2022-11-14T16:02:46;27.43;;;15.87;;
4359;SDS011;2193;47.980;7.660;2022-11-14T16:05:12;22.63;;;12.80;;
4359;SDS011;2193;47.980;7.660;2022-11-14T16:07:38;27.03;;;15.97;;
4359;SDS011;2193;47.980;7.660;2022-11-14T16:10:08;36.33;;;20.70;;
4359;SDS011;2193;47.980;7.660;2022-11-14T16:12:36;41.97;;;23.50;;
4359;SDS011;2193;47.980;7.660;2022-11-14T16:15:02;33.27;;;19.60;;
4359;SDS011;2193;47.980;7.660;2022-11-14T16:17:27;23.77;;;12.10;;
4359;SDS011;2193;47.980;7.660;2022-11-14T16:19:52;18.33;;;12.60;;
4359;SDS011;2193;47.980;7.660;2022-11-14T16:22:17;14.63;;;9.87;;
4359;SDS011;2193;47.980;7.660;2022-11-14T16:24:43;16.47;;;9.20;;
4359;SDS011;2193;47.980;7.660;2022-11-14T16:27:08;20.03;;;10.23;;
4359;SDS011;2193;47.980;7.660;2022-11-14T16:29:33;15.33;;;9.93;;
4359;SDS011;2193;47.980;7.660;2022-11-14T16:31:58;16.40;;;11.13;;
4359;SDS011;2193;47.980;7.660;2022-11-14T16:34:24;19.10;;;11.17;;
4359;SDS011;2193;47.980;7.660;2022-11-14T16:36:56;21.33;;;12.80;;
4359;SDS011;2193;47.980;7.660;2022-11-14T16:39:22;16.50;;;11.20;;
4359;SDS011;2193;47.980;7.660;2022-11-14T16:41:47;22.83;;;13.30;;
4359;SDS011;2193;47.980;7.660;2022-11-14T16:44:13;21.03;;;11.87;;
4359;SDS011;2193;47.980;7.660;2022-11-14T16:46:40;22.30;;;12.70;;
4359;SDS011;2193;47.980;7.660;2022-11-14T16:49:05;45.80;;;21.07;;
4359;SDS011;2193;47.980;7.660;2022-11-14T16:51:30;53.13;;;28.10;;